Seaspan Saigon — VRBT7 — position and weather

sailwx.info

Track history (hours):
 
Tides and Currents Weather Stations Pressure Air Temp Water Temp Dewpoint Dewpoint Depression Visibility Wind Speed Wind Dir Waves Ship Positions

Seaspan Saigon

Last reported at 2017-Sep-25 06:00 UTC. Time now 2017-Sep-25 06:15 UTC.
Position N 31°08' W 011°21'.

Length 260 m; draft 12.3 m.

Type: Ship (hazmat cat A). MMSI: 477106800.

Date/timePositionNaut miles runAvg speedWind from/ knotsBaromVisibWave heightAir tempDewpointWater temp
2017-Sep-25 06:00N 31°08' W 011°21'814.9
2017-Sep-25 05:30N 31°14' W 011°16'714.6
2017-Sep-25 05:00N 31°20' W 011°11'814.4
2017-Sep-25 04:25N 31°27' W 011°05'613.6
2017-Sep-25 04:00N 31°32' W 011°02'714.0
2017-Sep-25 03:30N 31°38' W 010°57'814.1
2017-Sep-25 02:57N 31°44' W 010°52'814.0
2017-Sep-25 02:24N 31°51' W 010°47'513.9
2017-Sep-25 02:00N 31°55' W 010°44'714.0
2017-Sep-25 01:29N 32°01' W 010°39'713.9
2017-Sep-25 01:00N 32°06' W 010°33'713.8
2017-Sep-25 00:30N 32°11' W 010°27'713.6
2017-Sep-24 23:59N 32°16' W 010°21'713.7
2017-Sep-24 23:29N 32°21' W 010°15'714.1
2017-Sep-24 23:00N 32°25' W 010°10'714.0
2017-Sep-24 22:30N 32°30' W 010°04'713.9
2017-Sep-24 22:00N 32°35' W 009°58'814.2
2017-Sep-24 21:28N 32°41' W 009°51'714.7
2017-Sep-24 21:00N 32°46' W 009°46'714.6
2017-Sep-24 20:30N 32°50' W 009°40'714.3
2017-Sep-24 19:59N 32°56' W 009°33'714.3
2017-Sep-24 19:30N 33°00' W 009°27'714.2
2017-Sep-24 19:00N 33°05' W 009°21'714.3
2017-Sep-24 18:30N 33°11' W 009°15'714.6
2017-Sep-24 18:00N 33°16' W 009°09'2114.8
2017-Sep-24 16:34N 33°31' W 008°51'315.0
2017-Sep-24 16:22N 33°33' W 008°48'614.9
2017-Sep-24 15:59N 33°37' W 008°44'1915.2
2017-Sep-24 14:43N 33°50' W 008°27'315.3
2017-Sep-24 14:30N 33°52' W 008°24'815.1
2017-Sep-24 14:00N 33°58' W 008°18'715.0
2017-Sep-24 13:30N 34°03' W 008°12'814.9
2017-Sep-24 13:00N 34°08' W 008°05'814.8
2017-Sep-24 12:30N 34°14' W 007°58'714.6
2017-Sep-24 12:00N 34°18' W 007°52'815.1
2017-Sep-24 11:30N 34°24' W 007°46'2414.8
2017-Sep-24 09:51N 34°41' W 007°25'2114.6
2017-Sep-24 08:24N 34°56' W 007°07'614.3
2017-Sep-24 08:00N 35°00' W 007°02'714.2
2017-Sep-24 07:30N 35°05' W 006°55'6614.2
2017-Sep-24 02:50N 35°51' W 005°57'514.8
2017-Sep-24 02:30N 35°55' W 005°53'814.6
2017-Sep-24 01:57N 35°57' W 005°43'715.2
2017-Sep-24 01:31N 35°58' W 005°35'713.8
2017-Sep-24 01:01N 35°60' W 005°27'611.1
2017-Sep-24 00:31N 36°05' W 005°24'3 6.2
2017-Sep-23 23:58N 36°08' W 005°25'0 0.0
2017-Sep-23 23:28N 36°08' W 005°25'0 0.0
2017-Sep-23 22:58N 36°08' W 005°25'0 0.0
2017-Sep-23 21:46N 36°08' W 005°25'0 0.0
2017-Sep-23 21:16N 36°08' W 005°25'0 0.0
2017-Sep-23 20:10N 36°08' W 005°25'0 0.1
2017-Sep-23 19:58N 36°08' W 005°25'  
2017-Sep-20 10:04N 30°36' W 011°46'215.1
2017-Sep-20 09:55N 30°34' W 011°47'615.0
2017-Sep-20 09:30N 30°29' W 011°51'814.9
2017-Sep-20 08:59N 30°22' W 011°56'714.7
2017-Sep-20 08:29N 30°16' W 012°01'714.4
2017-Sep-20 08:00N 30°10' W 012°05'1014.2
2017-Sep-20 07:18N 30°02' W 012°12'714.0
2017-Sep-20 06:50N 29°57' W 012°16'514.4
2017-Sep-20 06:30N 29°53' W 012°19'814.4
2017-Sep-20 05:56N 29°46' W 012°24'614.3
2017-Sep-20 05:30N 29°41' W 012°28'714.5
2017-Sep-20 05:00N 29°35' W 012°33'714.6
2017-Sep-20 04:30N 29°29' W 012°37'714.7
2017-Sep-20 04:00N 29°22' W 012°42'714.8
2017-Sep-20 03:30N 29°16' W 012°46'714.8
2017-Sep-20 03:00N 29°10' W 012°51'714.6
2017-Sep-20 02:30N 29°04' W 012°56'714.6
2017-Sep-20 02:00N 28°58' W 013°00'714.7
2017-Sep-20 01:30N 28°52' W 013°05'714.7
2017-Sep-20 01:00N 28°46' W 013°10'715.1
2017-Sep-20 00:30N 28°39' W 013°14'815.1
2017-Sep-20 00:00N 28°33' W 013°19'815.2
2017-Sep-19 23:30N 28°27' W 013°24'814.9
2017-Sep-19 22:59N 28°20' W 013°29'714.8
2017-Sep-19 22:30N 28°14' W 013°33'714.5
2017-Sep-19 22:00N 28°09' W 013°38'714.5
2017-Sep-19 21:30N 28°03' W 013°43'714.4
2017-Sep-19 21:00N 27°56' W 013°46'714.6
2017-Sep-19 20:30N 27°50' W 013°51'714.4
2017-Sep-19 20:00N 27°44' W 013°56'714.4
2017-Sep-19 19:30N 27°38' W 014°00'715.0
2017-Sep-19 19:00N 27°32' W 014°05'714.9
2017-Sep-19 18:30N 27°26' W 014°10'714.3
2017-Sep-19 18:00N 27°20' W 014°14'714.6
2017-Sep-19 17:30N 27°14' W 014°19'815.0
2017-Sep-19 17:00N 27°08' W 014°23'815.0
2017-Sep-19 16:30N 27°01' W 014°28'714.9
2017-Sep-19 16:00N 26°55' W 014°33'714.6
2017-Sep-19 15:30N 26°49' W 014°37'714.3
2017-Sep-19 15:00N 26°43' W 014°42'714.2
2017-Sep-19 14:30N 26°37' W 014°46'713.9
2017-Sep-19 14:00N 26°31' W 014°50'713.6
2017-Sep-19 13:30N 26°26' W 014°54'713.4
2017-Sep-19 13:00N 26°20' W 014°59'613.3
2017-Sep-19 12:30N 26°15' W 015°03'713.2
2017-Sep-19 12:00N 26°09' W 015°06'713.4
2017-Sep-19 11:30N 26°03' W 015°10'2613.1
2017-Sep-19 09:31N 25°42' W 015°27'013.8
2017-Sep-19 09:30N 25°42' W 015°27'813.8
2017-Sep-19 08:55N 25°35' W 015°32'613.6
2017-Sep-19 08:27N 25°30' W 015°36'713.9
2017-Sep-19 07:57N 25°24' W 015°40'813.8
2017-Sep-19 07:21N 25°17' W 015°45'514.0
2017-Sep-19 06:59N 25°13' W 015°48'1513.7
2017-Sep-19 05:55N 25°01' W 015°57'613.5
2017-Sep-19 05:30N 24°56' W 016°01'2013.3
2017-Sep-19 04:01N 24°38' W 016°11'413.3
2017-Sep-19 03:44N 24°35' W 016°13'5613.5
2017-Sep-18 23:37N 23°45' W 016°39'3013.9
2017-Sep-18 21:29N 23°18' W 016°52'1814.3
2017-Sep-18 20:12N 23°01' W 017°01'514.3
2017-Sep-18 19:52N 22°57' W 017°03'814.6
2017-Sep-18 19:18N 22°49' W 017°07'1214.4
2017-Sep-18 18:27N 22°39' W 017°13'1314.5
2017-Sep-18 17:31N 22°26' W 017°19'014.7
2017-Sep-18 17:30N 22°26' W 017°19'  
Track history (hours):
 
Tides and Currents Weather Stations Pressure Air Temp Water Temp Dewpoint Dewpoint Depression Visibility Wind Speed Wind Dir Waves Ship Positions

Seaspan Saigon

Last reported at 2017-Sep-25 06:00 UTC. Time now 2017-Sep-25 06:15 UTC.
Position N 31°08' W 011°21'.

Length 260 m; draft 12.3 m.

Type: Ship (hazmat cat A). MMSI: 477106800.

Date/timePositionNaut miles runAvg speedWind from/ knotsBaromVisibWave heightAir tempDewpointWater temp
2017-Sep-25 06:00N 31°08' W 011°21'814.9
2017-Sep-25 05:30N 31°14' W 011°16'714.6
2017-Sep-25 05:00N 31°20' W 011°11'814.4
2017-Sep-25 04:25N 31°27' W 011°05'613.6
2017-Sep-25 04:00N 31°32' W 011°02'714.0
2017-Sep-25 03:30N 31°38' W 010°57'814.1
2017-Sep-25 02:57N 31°44' W 010°52'814.0
2017-Sep-25 02:24N 31°51' W 010°47'513.9
2017-Sep-25 02:00N 31°55' W 010°44'714.0
2017-Sep-25 01:29N 32°01' W 010°39'713.9
2017-Sep-25 01:00N 32°06' W 010°33'713.8
2017-Sep-25 00:30N 32°11' W 010°27'713.6
2017-Sep-24 23:59N 32°16' W 010°21'713.7
2017-Sep-24 23:29N 32°21' W 010°15'714.1
2017-Sep-24 23:00N 32°25' W 010°10'714.0
2017-Sep-24 22:30N 32°30' W 010°04'713.9
2017-Sep-24 22:00N 32°35' W 009°58'814.2
2017-Sep-24 21:28N 32°41' W 009°51'714.7
2017-Sep-24 21:00N 32°46' W 009°46'714.6
2017-Sep-24 20:30N 32°50' W 009°40'714.3
2017-Sep-24 19:59N 32°56' W 009°33'714.3
2017-Sep-24 19:30N 33°00' W 009°27'714.2
2017-Sep-24 19:00N 33°05' W 009°21'714.3
2017-Sep-24 18:30N 33°11' W 009°15'714.6
2017-Sep-24 18:00N 33°16' W 009°09'2114.8
2017-Sep-24 16:34N 33°31' W 008°51'315.0
2017-Sep-24 16:22N 33°33' W 008°48'614.9
2017-Sep-24 15:59N 33°37' W 008°44'1915.2
2017-Sep-24 14:43N 33°50' W 008°27'315.3
2017-Sep-24 14:30N 33°52' W 008°24'815.1
2017-Sep-24 14:00N 33°58' W 008°18'715.0
2017-Sep-24 13:30N 34°03' W 008°12'814.9
2017-Sep-24 13:00N 34°08' W 008°05'814.8
2017-Sep-24 12:30N 34°14' W 007°58'714.6
2017-Sep-24 12:00N 34°18' W 007°52'815.1
2017-Sep-24 11:30N 34°24' W 007°46'2414.8
2017-Sep-24 09:51N 34°41' W 007°25'2114.6
2017-Sep-24 08:24N 34°56' W 007°07'614.3
2017-Sep-24 08:00N 35°00' W 007°02'714.2
2017-Sep-24 07:30N 35°05' W 006°55'6614.2
2017-Sep-24 02:50N 35°51' W 005°57'514.8
2017-Sep-24 02:30N 35°55' W 005°53'814.6
2017-Sep-24 01:57N 35°57' W 005°43'715.2
2017-Sep-24 01:31N 35°58' W 005°35'713.8
2017-Sep-24 01:01N 35°60' W 005°27'611.1
2017-Sep-24 00:31N 36°05' W 005°24'3 6.2
2017-Sep-23 23:58N 36°08' W 005°25'0 0.0
2017-Sep-23 23:28N 36°08' W 005°25'0 0.0
2017-Sep-23 22:58N 36°08' W 005°25'0 0.0
2017-Sep-23 21:46N 36°08' W 005°25'0 0.0
2017-Sep-23 21:16N 36°08' W 005°25'0 0.0
2017-Sep-23 20:10N 36°08' W 005°25'0 0.1
2017-Sep-23 19:58N 36°08' W 005°25'  
2017-Sep-20 10:04N 30°36' W 011°46'215.1
2017-Sep-20 09:55N 30°34' W 011°47'615.0
2017-Sep-20 09:30N 30°29' W 011°51'814.9
2017-Sep-20 08:59N 30°22' W 011°56'714.7
2017-Sep-20 08:29N 30°16' W 012°01'714.4
2017-Sep-20 08:00N 30°10' W 012°05'1014.2
2017-Sep-20 07:18N 30°02' W 012°12'714.0
2017-Sep-20 06:50N 29°57' W 012°16'514.4
2017-Sep-20 06:30N 29°53' W 012°19'814.4
2017-Sep-20 05:56N 29°46' W 012°24'614.3
2017-Sep-20 05:30N 29°41' W 012°28'714.5
2017-Sep-20 05:00N 29°35' W 012°33'714.6
2017-Sep-20 04:30N 29°29' W 012°37'714.7
2017-Sep-20 04:00N 29°22' W 012°42'714.8
2017-Sep-20 03:30N 29°16' W 012°46'714.8
2017-Sep-20 03:00N 29°10' W 012°51'714.6
2017-Sep-20 02:30N 29°04' W 012°56'714.6
2017-Sep-20 02:00N 28°58' W 013°00'714.7
2017-Sep-20 01:30N 28°52' W 013°05'714.7
2017-Sep-20 01:00N 28°46' W 013°10'715.1
2017-Sep-20 00:30N 28°39' W 013°14'815.1
2017-Sep-20 00:00N 28°33' W 013°19'815.2
2017-Sep-19 23:30N 28°27' W 013°24'814.9
2017-Sep-19 22:59N 28°20' W 013°29'714.8
2017-Sep-19 22:30N 28°14' W 013°33'714.5
2017-Sep-19 22:00N 28°09' W 013°38'714.5
2017-Sep-19 21:30N 28°03' W 013°43'714.4
2017-Sep-19 21:00N 27°56' W 013°46'714.6
2017-Sep-19 20:30N 27°50' W 013°51'714.4
2017-Sep-19 20:00N 27°44' W 013°56'714.4
2017-Sep-19 19:30N 27°38' W 014°00'715.0
2017-Sep-19 19:00N 27°32' W 014°05'714.9
2017-Sep-19 18:30N 27°26' W 014°10'714.3
2017-Sep-19 18:00N 27°20' W 014°14'714.6
2017-Sep-19 17:30N 27°14' W 014°19'815.0
2017-Sep-19 17:00N 27°08' W 014°23'815.0
2017-Sep-19 16:30N 27°01' W 014°28'714.9
2017-Sep-19 16:00N 26°55' W 014°33'714.6
2017-Sep-19 15:30N 26°49' W 014°37'714.3
2017-Sep-19 15:00N 26°43' W 014°42'714.2
2017-Sep-19 14:30N 26°37' W 014°46'713.9
2017-Sep-19 14:00N 26°31' W 014°50'713.6
2017-Sep-19 13:30N 26°26' W 014°54'713.4
2017-Sep-19 13:00N 26°20' W 014°59'613.3
2017-Sep-19 12:30N 26°15' W 015°03'713.2
2017-Sep-19 12:00N 26°09' W 015°06'713.4
2017-Sep-19 11:30N 26°03' W 015°10'2613.1
2017-Sep-19 09:31N 25°42' W 015°27'013.8
2017-Sep-19 09:30N 25°42' W 015°27'813.8
2017-Sep-19 08:55N 25°35' W 015°32'613.6
2017-Sep-19 08:27N 25°30' W 015°36'713.9
2017-Sep-19 07:57N 25°24' W 015°40'813.8
2017-Sep-19 07:21N 25°17' W 015°45'514.0
2017-Sep-19 06:59N 25°13' W 015°48'1513.7
2017-Sep-19 05:55N 25°01' W 015°57'613.5
2017-Sep-19 05:30N 24°56' W 016°01'2013.3
2017-Sep-19 04:01N 24°38' W 016°11'413.3
2017-Sep-19 03:44N 24°35' W 016°13'5613.5
2017-Sep-18 23:37N 23°45' W 016°39'3013.9
2017-Sep-18 21:29N 23°18' W 016°52'1814.3
2017-Sep-18 20:12N 23°01' W 017°01'514.3
2017-Sep-18 19:52N 22°57' W 017°03'814.6
2017-Sep-18 19:18N 22°49' W 017°07'1214.4
2017-Sep-18 18:27N 22°39' W 017°13'1314.5
2017-Sep-18 17:31N 22°26' W 017°19'014.7
2017-Sep-18 17:30N 22°26' W 017°19'  

Dump ship's entire track history